WHT93F LPPT-LPFR
Flight info
| Callsign | WHT93F |
|---|---|
| Flight time | 0h 30m |
| Altitude | 21000 |
| Route | DUZOP DCT ODEMI |
| Aircraft | A320/M-SDE3FGHIRWY/LB1 |
Departure
| Time | 2026-05-04 21:11 |
|---|---|
| Airport | Lisbon Humberto Delgado Airport (LPPT) |
Arrival
| Time | 2026-05-04 21:41 |
|---|---|
| Airport | Faro - Gago Coutinho International Airport (LPFR) |
| Time | Latitude | Longitude | Altitude | Speed | Heading |
|---|---|---|---|---|---|
| 2026-05-04 20:53 | 38.76758 | -9.13973 | 344 ft | 0 kts | 78° |
| 2026-05-04 21:01 | 38.76755 | -9.13992 | 354 ft | 4 kts | 78° |
| 2026-05-04 21:01 | 38.76750 | -9.14018 | 348 ft | 4 kts | 78° |
| 2026-05-04 21:01 | 38.76748 | -9.14051 | 351 ft | 4 kts | 106° |
| 2026-05-04 21:01 | 38.76760 | -9.14069 | 353 ft | 3 kts | 167° |
| 2026-05-04 21:02 | 38.76776 | -9.14074 | 347 ft | 1 kts | 167° |
| 2026-05-04 21:04 | 38.76773 | -9.14073 | 352 ft | 2 kts | 167° |
| 2026-05-04 21:04 | 38.76738 | -9.14063 | 349 ft | 11 kts | 167° |
| 2026-05-04 21:05 | 38.76655 | -9.14015 | 346 ft | 17 kts | 117° |
| 2026-05-04 21:05 | 38.76668 | -9.13840 | 344 ft | 18 kts | 81° |
| 2026-05-04 21:05 | 38.76617 | -9.13724 | 349 ft | 15 kts | 94° |
| 2026-05-04 21:05 | 38.76639 | -9.13576 | 347 ft | 19 kts | 78° |
| 2026-05-04 21:06 | 38.76698 | -9.13423 | 344 ft | 21 kts | 36° |
| 2026-05-04 21:06 | 38.76771 | -9.13270 | 336 ft | 21 kts | 65° |
| 2026-05-04 21:06 | 38.76906 | -9.13266 | 341 ft | 25 kts | 348° |
| 2026-05-04 21:06 | 38.77108 | -9.13320 | 344 ft | 32 kts | 348° |
| 2026-05-04 21:07 | 38.77334 | -9.13381 | 342 ft | 34 kts | 348° |
| 2026-05-04 21:07 | 38.77567 | -9.13443 | 345 ft | 35 kts | 348° |
| 2026-05-04 21:07 | 38.77793 | -9.13503 | 358 ft | 30 kts | 350° |
| 2026-05-04 21:07 | 38.77994 | -9.13438 | 358 ft | 31 kts | 22° |
| 2026-05-04 21:08 | 38.78198 | -9.13330 | 358 ft | 33 kts | 22° |
| 2026-05-04 21:08 | 38.78390 | -9.13229 | 363 ft | 26 kts | 17° |
| 2026-05-04 21:08 | 38.78515 | -9.13254 | 365 ft | 0 kts | 327° |
| 2026-05-04 21:09 | 38.78525 | -9.13268 | 361 ft | 7 kts | 309° |
| 2026-05-04 21:10 | 38.78516 | -9.13376 | 361 ft | 16 kts | 233° |
| 2026-05-04 21:10 | 38.78490 | -9.13400 | 362 ft | 0 kts | 206° |
| 2026-05-04 21:10 | 38.78391 | -9.13453 | 364 ft | 47 kts | 202° |
| 2026-05-04 21:10 | 38.77854 | -9.13740 | 363 ft | 116 kts | 202° |
| 2026-05-04 21:11 | 38.76953 | -9.14210 | 515 ft | 149 kts | 203° |
| 2026-05-04 21:11 | 38.75970 | -9.14716 | 1090 ft | 154 kts | 206° |
| 2026-05-04 21:11 | 38.74982 | -9.15248 | 1687 ft | 160 kts | 207° |
| 2026-05-04 21:11 | 38.73876 | -9.15853 | 2056 ft | 182 kts | 208° |
| 2026-05-04 21:12 | 38.72638 | -9.16531 | 2412 ft | 205 kts | 207° |
| 2026-05-04 21:12 | 38.71241 | -9.17290 | 2813 ft | 231 kts | 206° |
| 2026-05-04 21:12 | 38.69680 | -9.18125 | 3327 ft | 255 kts | 204° |
| 2026-05-04 21:12 | 38.67862 | -9.18464 | 4046 ft | 276 kts | 174° |
| 2026-05-04 21:13 | 38.66019 | -9.17701 | 5069 ft | 282 kts | 156° |
| 2026-05-04 21:13 | 38.64221 | -9.16686 | 6132 ft | 283 kts | 158° |
| 2026-05-04 21:13 | 38.62403 | -9.15706 | 7173 ft | 285 kts | 158° |
| 2026-05-04 21:13 | 38.60555 | -9.14727 | 8054 ft | 292 kts | 159° |
| 2026-05-04 21:14 | 38.58662 | -9.13727 | 8962 ft | 297 kts | 159° |
| 2026-05-04 21:14 | 38.56737 | -9.12707 | 9885 ft | 302 kts | 159° |
| 2026-05-04 21:14 | 38.54767 | -9.11661 | 10517 ft | 316 kts | 159° |
| 2026-05-04 21:14 | 38.52661 | -9.10543 | 10828 ft | 338 kts | 160° |
| 2026-05-04 21:15 | 38.50453 | -9.09364 | 11432 ft | 348 kts | 160° |
| 2026-05-04 21:15 | 38.48201 | -9.08159 | 12184 ft | 353 kts | 160° |
| 2026-05-04 21:15 | 38.45917 | -9.06933 | 12954 ft | 358 kts | 161° |
| 2026-05-04 21:15 | 38.43603 | -9.05692 | 13716 ft | 363 kts | 161° |
| 2026-05-04 21:16 | 38.41272 | -9.04445 | 14404 ft | 368 kts | 161° |
| 2026-05-04 21:16 | 38.38903 | -9.03177 | 15081 ft | 372 kts | 161° |
| 2026-05-04 21:16 | 38.36498 | -9.01890 | 15753 ft | 376 kts | 162° |
| 2026-05-04 21:16 | 38.34086 | -9.00599 | 16407 ft | 380 kts | 162° |
| 2026-05-04 21:17 | 38.31625 | -8.99288 | 17068 ft | 384 kts | 162° |
| 2026-05-04 21:17 | 38.29135 | -8.97965 | 17713 ft | 388 kts | 162° |
| 2026-05-04 21:17 | 38.26631 | -8.96637 | 18383 ft | 392 kts | 163° |
| 2026-05-04 21:17 | 38.24097 | -8.95293 | 18971 ft | 397 kts | 163° |
| 2026-05-04 21:18 | 38.21580 | -8.93956 | 19571 ft | 400 kts | 163° |
| 2026-05-04 21:18 | 38.18988 | -8.92575 | 20193 ft | 404 kts | 163° |
| 2026-05-04 21:18 | 38.16375 | -8.91183 | 20814 ft | 408 kts | 163° |
| 2026-05-04 21:18 | 38.13744 | -8.89785 | 21077 ft | 410 kts | 163° |
| 2026-05-04 21:19 | 38.11118 | -8.88390 | 21145 ft | 407 kts | 163° |
| 2026-05-04 21:19 | 38.08515 | -8.87008 | 21147 ft | 405 kts | 163° |
| 2026-05-04 21:19 | 38.05922 | -8.85634 | 21150 ft | 404 kts | 163° |
| 2026-05-04 21:19 | 38.03323 | -8.84258 | 21150 ft | 404 kts | 163° |
| 2026-05-04 21:20 | 38.00733 | -8.82890 | 21148 ft | 404 kts | 163° |
| 2026-05-04 21:20 | 37.98141 | -8.81523 | 21150 ft | 404 kts | 163° |
| 2026-05-04 21:20 | 37.95546 | -8.80155 | 21150 ft | 404 kts | 163° |
| 2026-05-04 21:20 | 37.92950 | -8.78786 | 21144 ft | 404 kts | 163° |
| 2026-05-04 21:21 | 37.90353 | -8.77419 | 21147 ft | 404 kts | 163° |
| 2026-05-04 21:21 | 37.87757 | -8.76056 | 21148 ft | 404 kts | 163° |
| 2026-05-04 21:21 | 37.85164 | -8.74693 | 21131 ft | 404 kts | 163° |
| 2026-05-04 21:21 | 37.82687 | -8.72937 | 21144 ft | 414 kts | 147° |
| 2026-05-04 21:22 | 37.80555 | -8.70448 | 21154 ft | 417 kts | 140° |
| 2026-05-04 21:22 | 37.78491 | -8.67873 | 21156 ft | 418 kts | 139° |
| 2026-05-04 21:22 | 37.76431 | -8.65280 | 21161 ft | 417 kts | 139° |
| 2026-05-04 21:22 | 37.74375 | -8.62683 | 21161 ft | 417 kts | 139° |
| 2026-05-04 21:23 | 37.72326 | -8.60099 | 21165 ft | 417 kts | 139° |
| 2026-05-04 21:23 | 37.70260 | -8.57504 | 21165 ft | 417 kts | 140° |
| 2026-05-04 21:23 | 37.68197 | -8.54922 | 21161 ft | 417 kts | 140° |
| 2026-05-04 21:23 | 37.66139 | -8.52351 | 21163 ft | 417 kts | 140° |
| 2026-05-04 21:24 | 37.64076 | -8.49775 | 21140 ft | 417 kts | 139° |
| 2026-05-04 21:24 | 37.62034 | -8.47222 | 20920 ft | 408 kts | 139° |
| 2026-05-04 21:24 | 37.60041 | -8.44732 | 20666 ft | 398 kts | 139° |
| 2026-05-04 21:24 | 37.58113 | -8.42325 | 20277 ft | 394 kts | 139° |
| 2026-05-04 21:25 | 37.56173 | -8.39909 | 19773 ft | 393 kts | 139° |
| 2026-05-04 21:25 | 37.54190 | -8.37448 | 19256 ft | 393 kts | 139° |
| 2026-05-04 21:25 | 37.52264 | -8.35063 | 18754 ft | 393 kts | 139° |
| 2026-05-04 21:25 | 37.50319 | -8.32662 | 18215 ft | 392 kts | 139° |
| 2026-05-04 21:26 | 37.48375 | -8.30260 | 17683 ft | 390 kts | 139° |
| 2026-05-04 21:26 | 37.46449 | -8.27876 | 17182 ft | 387 kts | 139° |
| 2026-05-04 21:26 | 37.44535 | -8.25505 | 16675 ft | 384 kts | 139° |
| 2026-05-04 21:26 | 37.42641 | -8.23158 | 16157 ft | 381 kts | 138° |
| 2026-05-04 21:27 | 37.40759 | -8.20823 | 15678 ft | 378 kts | 138° |
| 2026-05-04 21:27 | 37.38895 | -8.18513 | 15180 ft | 376 kts | 138° |
| 2026-05-04 21:27 | 37.37039 | -8.16216 | 14691 ft | 373 kts | 138° |
| 2026-05-04 21:27 | 37.35196 | -8.13936 | 14259 ft | 369 kts | 138° |
| 2026-05-04 21:28 | 37.33363 | -8.11676 | 13775 ft | 367 kts | 138° |
| 2026-05-04 21:28 | 37.31550 | -8.09445 | 13242 ft | 364 kts | 138° |
| 2026-05-04 21:28 | 37.29751 | -8.07238 | 12744 ft | 361 kts | 138° |
| 2026-05-04 21:28 | 37.27963 | -8.05045 | 12289 ft | 356 kts | 138° |
| 2026-05-04 21:29 | 37.26198 | -8.02880 | 11761 ft | 353 kts | 138° |
| 2026-05-04 21:29 | 37.24453 | -8.00737 | 11318 ft | 350 kts | 138° |
| 2026-05-04 21:29 | 37.22721 | -7.98608 | 10861 ft | 347 kts | 138° |
| 2026-05-04 21:29 | 37.21000 | -7.96495 | 10395 ft | 345 kts | 138° |
| 2026-05-04 21:30 | 37.19301 | -7.94410 | 10139 ft | 336 kts | 138° |
| 2026-05-04 21:30 | 37.17657 | -7.92393 | 10017 ft | 324 kts | 138° |
| 2026-05-04 21:30 | 37.16076 | -7.90451 | 9861 ft | 313 kts | 138° |
| 2026-05-04 21:30 | 37.14531 | -7.88557 | 9544 ft | 308 kts | 138° |
| 2026-05-04 21:31 | 37.11489 | -7.84841 | 8589 ft | 301 kts | 138° |
| 2026-05-04 21:31 | 37.09999 | -7.83028 | 7959 ft | 297 kts | 138° |
| 2026-05-04 21:31 | 37.08531 | -7.81241 | 7375 ft | 291 kts | 136° |
| 2026-05-04 21:32 | 37.07088 | -7.79482 | 6782 ft | 287 kts | 136° |
| 2026-05-04 21:32 | 37.05663 | -7.77746 | 6057 ft | 287 kts | 136° |
| 2026-05-04 21:32 | 37.04231 | -7.75999 | 5333 ft | 286 kts | 136° |
| 2026-05-04 21:32 | 37.02868 | -7.74333 | 5065 ft | 269 kts | 136° |
| 2026-05-04 21:33 | 37.01581 | -7.72762 | 4934 ft | 248 kts | 136° |
| 2026-05-04 21:33 | 37.00395 | -7.71319 | 4823 ft | 228 kts | 136° |
| 2026-05-04 21:33 | 36.99304 | -7.69993 | 4721 ft | 210 kts | 136° |
| 2026-05-04 21:33 | 36.98264 | -7.68730 | 4632 ft | 206 kts | 136° |
| 2026-05-04 21:34 | 36.97229 | -7.67487 | 4543 ft | 206 kts | 141° |
| 2026-05-04 21:34 | 36.95938 | -7.66782 | 4388 ft | 204 kts | 182° |
| 2026-05-04 21:34 | 36.94624 | -7.67251 | 4225 ft | 195 kts | 221° |
| 2026-05-04 21:34 | 36.93857 | -7.68571 | 4073 ft | 186 kts | 259° |
| 2026-05-04 21:35 | 36.93860 | -7.70152 | 3928 ft | 184 kts | 292° |
| 2026-05-04 21:35 | 36.94570 | -7.71438 | 3729 ft | 180 kts | 319° |
| 2026-05-04 21:35 | 36.95474 | -7.72489 | 3555 ft | 176 kts | 318° |
| 2026-05-04 21:35 | 36.96372 | -7.73549 | 3411 ft | 178 kts | 319° |
| 2026-05-04 21:36 | 36.97249 | -7.74589 | 3295 ft | 169 kts | 319° |
| 2026-05-04 21:36 | 36.98072 | -7.75584 | 3145 ft | 161 kts | 315° |
| 2026-05-04 21:36 | 36.98598 | -7.76787 | 3015 ft | 157 kts | 290° |
| 2026-05-04 21:36 | 36.98796 | -7.78097 | 2848 ft | 153 kts | 285° |
| 2026-05-04 21:37 | 36.98981 | -7.79393 | 2658 ft | 149 kts | 286° |
| 2026-05-04 21:37 | 36.99164 | -7.80661 | 2456 ft | 146 kts | 286° |
| 2026-05-04 21:37 | 36.99333 | -7.81850 | 2281 ft | 133 kts | 287° |
| 2026-05-04 21:37 | 36.99492 | -7.82959 | 2105 ft | 127 kts | 288° |
| 2026-05-04 21:38 | 36.99648 | -7.84036 | 1934 ft | 124 kts | 289° |
| 2026-05-04 21:38 | 36.99800 | -7.85095 | 1761 ft | 124 kts | 288° |
| 2026-05-04 21:38 | 36.99952 | -7.86152 | 1593 ft | 124 kts | 286° |
| 2026-05-04 21:38 | 37.00107 | -7.87231 | 1424 ft | 126 kts | 285° |
| 2026-05-04 21:39 | 37.00260 | -7.88301 | 1250 ft | 124 kts | 287° |
| 2026-05-04 21:39 | 37.00413 | -7.89373 | 1082 ft | 124 kts | 284° |
| 2026-05-04 21:39 | 37.00515 | -7.90082 | 966 ft | 126 kts | 283° |
| 2026-05-04 21:39 | 37.00668 | -7.91157 | 802 ft | 125 kts | 281° |
| 2026-05-04 21:40 | 37.00821 | -7.92227 | 639 ft | 125 kts | 281° |
| 2026-05-04 21:40 | 37.00972 | -7.93294 | 474 ft | 124 kts | 281° |
| 2026-05-04 21:40 | 37.01123 | -7.94348 | 318 ft | 124 kts | 280° |
| 2026-05-04 21:40 | 37.01274 | -7.95397 | 151 ft | 123 kts | 281° |
| 2026-05-04 21:41 | 37.01418 | -7.96424 | 28 ft | 109 kts | 282° |
| 2026-05-04 21:41 | 37.01528 | -7.97183 | 22 ft | 67 kts | 280° |
| 2026-05-04 21:41 | 37.01587 | -7.97593 | 19 ft | 19 kts | 278° |
| 2026-05-04 21:41 | 37.01609 | -7.97757 | 19 ft | 20 kts | 279° |
| 2026-05-04 21:42 | 37.01629 | -7.97900 | 25 ft | 13 kts | 280° |
| 2026-05-04 21:42 | 37.01649 | -7.98016 | 29 ft | 14 kts | 292° |
| 2026-05-04 21:42 | 37.01723 | -7.98142 | 28 ft | 24 kts | 307° |
| 2026-05-04 21:42 | 37.01831 | -7.98218 | 28 ft | 18 kts | 41° |
| 2026-05-04 21:43 | 37.01835 | -7.98049 | 24 ft | 23 kts | 101° |
| 2026-05-04 21:43 | 37.01805 | -7.97840 | 23 ft | 26 kts | 99° |
| 2026-05-04 21:43 | 37.01772 | -7.97601 | 22 ft | 30 kts | 100° |
| 2026-05-04 21:43 | 37.01733 | -7.97328 | 20 ft | 33 kts | 100° |
| 2026-05-04 21:44 | 37.01693 | -7.97028 | 20 ft | 32 kts | 99° |
| 2026-05-04 21:44 | 37.01663 | -7.96813 | 20 ft | 26 kts | 100° |
| 2026-05-04 21:44 | 37.01633 | -7.96601 | 20 ft | 10 kts | 99° |
| 2026-05-04 21:44 | 37.01678 | -7.96539 | 20 ft | 13 kts | 13° |
| 2026-05-04 21:45 | 37.01768 | -7.96492 | 20 ft | 13 kts | 46° |
| 2026-05-04 21:45 | 37.01786 | -7.96477 | 20 ft | 4 kts | 25° |
| 2026-05-04 21:45 | 37.01823 | -7.96468 | 19 ft | 7 kts | 10° |
| 2026-05-04 21:45 | 37.01853 | -7.96461 | 20 ft | 3 kts | 10° |
| 2026-05-04 21:46 | 37.01854 | -7.96461 | 20 ft | 0 kts | 10° |